Time;durP1;ratioP1;P1;durP2;ratioP2;P2;SDS_P1;SDS_P2;PMS_P1;PMS_P2;Temp;Humidity;BMP_temperature;BMP_pressure;BME280_temperature;BME280_humidity;BME280_pressure;Samples;Min_cycle;Max_cycle;Signal;HPM_P1;HPM_P2
2023/02/18 00:00:16;;;;;;;12.23;6.10;;;;;;;;;;1037644;28;20579;-16
2023/02/18 00:00:46;;;;;;;10.63;4.88;;;;;;;;;;1037534;28;20038;-16
2023/02/18 00:01:18;;;;;;;9.38;4.80;;;;;;;;;;1037797;28;20073;-18
2023/02/18 00:01:48;;;;;;;16.83;6.13;;;;;;;;;;1037910;28;20026;-17
2023/02/18 00:02:19;;;;;;;10.85;6.20;;;;;;;;;;1037734;28;20437;-18
2023/02/18 00:02:49;;;;;;;9.25;6.03;;;;;;;;;;1037833;28;20049;-19
2023/02/18 00:03:19;;;;;;;9.15;5.00;;;;;;;;;;1037691;28;20028;-18
2023/02/18 00:03:50;;;;;;;13.82;6.53;;;;;;;;;;1037489;28;20030;-16
2023/02/18 00:04:21;;;;;;;13.43;5.90;;;;;;;;;;1037830;28;20018;-16
2023/02/18 00:04:53;;;;;;;8.55;5.10;;;;;;;;;;1037922;28;20021;-19
2023/02/18 00:05:23;;;;;;;11.32;5.10;;;;;;;;;;1036750;28;20021;-18
2023/02/18 00:05:54;;;;;;;9.82;5.45;;;;;;;;;;1037737;28;20022;-17
2023/02/18 00:06:29;;;;;;;15.18;6.78;;;;;;;;;;1038317;28;20049;-17
2023/02/18 00:06:59;;;;;;;10.43;5.18;;;;;;;;;;1037891;28;20018;-18
2023/02/18 00:07:33;;;;;;;9.18;4.88;;;;;;;;;;1037684;28;20496;-18
2023/02/18 00:08:03;;;;;;;8.55;5.20;;;;;;;;;;1037609;28;20018;-18
2023/02/18 00:08:33;;;;;;;8.95;5.07;;;;;;;;;;1037668;28;20053;-18
2023/02/18 00:09:05;;;;;;;12.25;5.75;;;;;;;;;;1037826;28;20022;-17
2023/02/18 00:09:37;;;;;;;9.82;6.10;;;;;;;;;;1037597;28;20025;-18
2023/02/18 00:10:10;;;;;;;13.30;6.40;;;;;;;;;;1036753;28;20117;-16
2023/02/18 00:10:40;;;;;;;5.63;3.92;;;;;;;;;;1037690;28;20021;-16
2023/02/18 00:11:11;;;;;;;12.75;5.72;;;;;;;;;;1037879;28;20029;-17
2023/02/18 00:11:42;;;;;;;13.07;6.20;;;;;;;;;;1037317;28;20032;-18
2023/02/18 00:12:12;;;;;;;10.65;5.10;;;;;;;;;;1037614;28;20021;-17
2023/02/18 00:12:43;;;;;;;11.88;5.55;;;;;;;;;;1037663;28;20037;-17
2023/02/18 00:13:14;;;;;;;6.93;4.68;;;;;;;;;;1037567;28;20104;-17
2023/02/18 00:13:52;;;;;;;12.18;6.13;;;;;;;;;;1037545;28;20017;-16
2023/02/18 00:14:22;;;;;;;6.85;3.92;;;;;;;;;;1036450;28;20032;-17
2023/02/18 00:14:53;;;;;;;10.23;5.40;;;;;;;;;;1037717;28;20048;-19
2023/02/18 00:15:23;;;;;;;10.93;5.35;;;;;;;;;;1037582;28;20099;-17
2023/02/18 00:15:53;;;;;;;7.22;4.47;;;;;;;;;;1037744;28;20028;-16
2023/02/18 00:16:25;;;;;;;17.20;6.82;;;;;;;;;;1037558;28;20029;-18
2023/02/18 00:16:56;;;;;;;8.95;4.72;;;;;;;;;;1037744;28;20027;-16
2023/02/18 00:17:27;;;;;;;7.65;4.15;;;;;;;;;;1035843;28;20042;-17
2023/02/18 00:17:57;;;;;;;8.98;4.78;;;;;;;;;;1037608;28;20431;-17
2023/02/18 00:18:28;;;;;;;9.68;6.05;;;;;;;;;;1037696;28;20104;-17
2023/02/18 00:19:03;;;;;;;11.93;6.00;;;;;;;;;;1037714;28;20029;-20
2023/02/18 00:19:33;;;;;;;10.63;4.55;;;;;;;;;;1037366;28;20022;-16
2023/02/18 00:20:04;;;;;;;12.32;5.22;;;;;;;;;;1037637;28;20026;-16
2023/02/18 00:20:37;;;;;;;6.32;4.25;;;;;;;;;;1037416;28;20041;-17
2023/02/18 00:21:07;;;;;;;12.00;6.63;;;;;;;;;;1036691;28;20087;-18
2023/02/18 00:21:38;;;;;;;17.42;6.82;;;;;;;;;;1037234;28;20064;-16
2023/02/18 00:22:08;;;;;;;10.75;5.07;;;;;;;;;;1037866;28;20028;-17
2023/02/18 00:22:39;;;;;;;10.35;5.88;;;;;;;;;;1037652;28;20032;-17
2023/02/18 00:23:09;;;;;;;14.95;7.75;;;;;;;;;;1037773;28;20474;-18
2023/02/18 00:23:40;;;;;;;6.20;3.58;;;;;;;;;;1037704;28;20165;-16
2023/02/18 00:24:11;;;;;;;12.73;5.50;;;;;;;;;;1037731;28;20026;-16
2023/02/18 00:24:42;;;;;;;7.97;4.30;;;;;;;;;;1037627;28;20033;-16
2023/02/18 00:25:12;;;;;;;7.43;3.72;;;;;;;;;;1037568;28;20022;-17
2023/02/18 00:25:42;;;;;;;5.45;3.30;;;;;;;;;;1037689;28;20029;-18
2023/02/18 00:26:14;;;;;;;8.20;4.47;;;;;;;;;;1037653;28;20030;-17
2023/02/18 00:26:44;;;;;;;10.27;5.00;;;;;;;;;;1037632;28;20026;-18
2023/02/18 00:27:15;;;;;;;11.18;5.68;;;;;;;;;;1037529;28;20116;-18
2023/02/18 00:27:45;;;;;;;6.40;4.85;;;;;;;;;;1037037;28;20177;-18
2023/02/18 00:28:16;;;;;;;9.52;5.70;;;;;;;;;;1036507;28;20029;-16
2023/02/18 00:28:55;;;;;;;5.07;3.92;;;;;;;;;;1037520;28;20459;-16
2023/02/18 00:29:26;;;;;;;5.10;3.38;;;;;;;;;;1037009;28;20094;-15
2023/02/18 00:29:57;;;;;;;11.20;4.88;;;;;;;;;;1037770;28;20029;-17
2023/02/18 00:30:27;;;;;;;10.85;5.50;;;;;;;;;;1037424;28;20526;-18
2023/02/18 00:30:58;;;;;;;7.32;2.97;;;;;;;;;;1037443;28;20026;-16
2023/02/18 00:31:29;;;;;;;16.80;5.32;;;;;;;;;;1037335;28;20111;-19
2023/02/18 00:32:00;;;;;;;10.95;5.95;;;;;;;;;;1036825;28;20112;-18
2023/02/18 00:32:30;;;;;;;13.95;4.00;;;;;;;;;;1037353;28;20018;-16
2023/02/18 00:33:01;;;;;;;8.00;3.72;;;;;;;;;;1037525;28;20037;-16
2023/02/18 00:33:31;;;;;;;9.55;4.57;;;;;;;;;;1037275;28;20137;-15
2023/02/18 00:34:02;;;;;;;10.70;4.82;;;;;;;;;;1037585;28;20081;-17
2023/02/18 00:34:33;;;;;;;12.00;5.68;;;;;;;;;;1037398;28;20099;-17
2023/02/18 00:35:04;;;;;;;7.22;4.43;;;;;;;;;;1037795;28;20073;-18
2023/02/18 00:35:34;;;;;;;9.98;5.15;;;;;;;;;;1037063;28;20029;-16
2023/02/18 00:36:08;;;;;;;13.40;5.50;;;;;;;;;;1037325;28;20552;-16
2023/02/18 00:36:38;;;;;;;7.35;4.63;;;;;;;;;;1036545;28;20473;-17
2023/02/18 00:37:08;;;;;;;12.43;6.38;;;;;;;;;;1037756;28;20030;-16
2023/02/18 00:37:39;;;;;;;8.25;4.65;;;;;;;;;;1037515;28;20064;-16
2023/02/18 00:38:09;;;;;;;11.48;5.03;;;;;;;;;;1037798;28;20021;-16
2023/02/18 00:38:47;;;;;;;14.50;6.20;;;;;;;;;;1037610;28;20085;-16
2023/02/18 00:39:17;;;;;;;10.40;5.20;;;;;;;;;;1037257;28;20045;-17
2023/02/18 00:39:48;;;;;;;5.95;4.47;;;;;;;;;;1037655;28;20021;-16
2023/02/18 00:40:19;;;;;;;7.65;4.72;;;;;;;;;;1037699;28;20017;-17
2023/02/18 00:40:49;;;;;;;11.65;7.35;;;;;;;;;;1037643;28;20034;-17
2023/02/18 00:41:21;;;;;;;7.28;4.38;;;;;;;;;;1037493;28;20048;-17
2023/02/18 00:41:51;;;;;;;14.10;6.05;;;;;;;;;;1037520;28;20022;-16
2023/02/18 00:42:21;;;;;;;10.18;5.57;;;;;;;;;;1037639;28;20385;-17
2023/02/18 00:42:52;;;;;;;9.93;4.35;;;;;;;;;;1037406;28;20025;-16
2023/02/18 00:43:22;;;;;;;13.38;5.50;;;;;;;;;;1037361;28;20026;-16
2023/02/18 00:43:53;;;;;;;12.73;6.05;;;;;;;;;;1037602;28;20026;-17
2023/02/18 00:44:23;;;;;;;8.60;3.75;;;;;;;;;;1037465;28;20114;-16
2023/02/18 00:44:54;;;;;;;9.70;5.55;;;;;;;;;;1037707;28;20034;-19
2023/02/18 00:45:24;;;;;;;10.65;5.18;;;;;;;;;;1037518;28;20169;-18
2023/02/18 00:45:54;;;;;;;9.00;4.20;;;;;;;;;;1037452;28;20057;-16
2023/02/18 00:46:26;;;;;;;9.52;4.47;;;;;;;;;;1037285;28;20027;-18
2023/02/18 00:46:56;;;;;;;11.48;6.40;;;;;;;;;;1037493;28;20075;-17
2023/02/18 00:47:27;;;;;;;7.85;4.68;;;;;;;;;;1037400;28;20180;-18
2023/02/18 00:47:57;;;;;;;11.60;5.75;;;;;;;;;;1037483;28;20058;-15
2023/02/18 00:48:28;;;;;;;9.38;5.15;;;;;;;;;;1037497;28;20110;-17
2023/02/18 00:48:58;;;;;;;11.45;5.75;;;;;;;;;;1037615;28;20022;-15
2023/02/18 00:49:29;;;;;;;6.30;4.38;;;;;;;;;;1037587;28;20025;-17
2023/02/18 00:49:59;;;;;;;8.68;4.32;;;;;;;;;;1037603;28;20025;-17
2023/02/18 00:50:30;;;;;;;10.85;5.22;;;;;;;;;;1037497;28;20033;-17
2023/02/18 00:51:00;;;;;;;11.02;3.70;;;;;;;;;;1037316;28;20022;-17
2023/02/18 00:51:31;;;;;;;8.77;5.25;;;;;;;;;;1038429;28;20548;-16
2023/02/18 00:52:02;;;;;;;17.90;6.50;;;;;;;;;;1037559;28;20021;-16
2023/02/18 00:52:32;;;;;;;9.18;5.50;;;;;;;;;;1036996;28;20025;-18
2023/02/18 00:53:03;;;;;;;9.77;5.45;;;;;;;;;;1037492;28;20021;-19
2023/02/18 00:53:33;;;;;;;10.10;6.07;;;;;;;;;;1037391;28;20022;-16
2023/02/18 00:54:04;;;;;;;7.20;5.30;;;;;;;;;;1037492;28;20021;-16
2023/02/18 00:54:34;;;;;;;11.18;6.20;;;;;;;;;;1037444;28;20205;-16
2023/02/18 00:55:05;;;;;;;12.07;5.10;;;;;;;;;;1037269;28;20080;-16
2023/02/18 00:55:39;;;;;;;10.75;5.93;;;;;;;;;;1037193;28;20121;-16
2023/02/18 00:56:09;;;;;;;6.32;3.72;;;;;;;;;;1036765;28;20049;-17
2023/02/18 00:56:40;;;;;;;9.73;6.18;;;;;;;;;;1037619;28;20036;-16
2023/02/18 00:57:10;;;;;;;9.50;5.25;;;;;;;;;;1037741;28;20389;-16
2023/02/18 00:57:41;;;;;;;11.85;5.47;;;;;;;;;;1037236;28;20440;-16
2023/02/18 00:58:11;;;;;;;13.35;6.88;;;;;;;;;;1037655;28;20129;-16
2023/02/18 00:58:42;;;;;;;6.53;3.45;;;;;;;;;;1037557;28;20473;-18
2023/02/18 00:59:12;;;;;;;11.25;4.72;;;;;;;;;;1037774;28;20133;-16
2023/02/18 00:59:42;;;;;;;9.52;4.63;;;;;;;;;;1037396;28;20061;-17
2023/02/18 01:00:13;;;;;;;8.70;4.50;;;;;;;;;;1037562;28;20029;-17
2023/02/18 01:00:44;;;;;;;19.17;5.95;;;;;;;;;;1037751;28;20032;-17
2023/02/18 01:01:14;;;;;;;14.10;5.28;;;;;;;;;;1037561;28;20025;-17
2023/02/18 01:01:45;;;;;;;10.98;6.35;;;;;;;;;;1037197;28;20027;-17
2023/02/18 01:02:16;;;;;;;14.18;7.10;;;;;;;;;;1037204;28;20048;-16
2023/02/18 01:02:46;;;;;;;13.15;7.10;;;;;;;;;;1037083;28;20045;-17
2023/02/18 01:03:17;;;;;;;13.55;6.25;;;;;;;;;;1037443;28;20025;-16
2023/02/18 01:03:47;;;;;;;8.15;5.13;;;;;;;;;;1037405;28;20021;-16
2023/02/18 01:04:18;;;;;;;11.13;6.45;;;;;;;;;;1037235;28;20021;-16
2023/02/18 01:04:48;;;;;;;12.82;6.88;;;;;;;;;;1037310;28;20029;-17
2023/02/18 01:05:19;;;;;;;13.30;7.40;;;;;;;;;;1037307;28;20107;-18
2023/02/18 01:05:50;;;;;;;15.82;7.50;;;;;;;;;;1037165;28;20061;-19
2023/02/18 01:06:23;;;;;;;15.13;8.48;;;;;;;;;;1036539;28;20030;-18
2023/02/18 01:06:53;;;;;;;13.07;4.07;;;;;;;;;;1036929;28;20029;-18
2023/02/18 01:07:24;;;;;;;17.00;5.80;;;;;;;;;;1037125;28;20477;-17
2023/02/18 01:07:54;;;;;;;7.53;3.83;;;;;;;;;;1037335;28;20052;-19
2023/02/18 01:08:25;;;;;;;7.65;3.67;;;;;;;;;;1037348;28;20037;-19
2023/02/18 01:08:55;;;;;;;10.40;5.03;;;;;;;;;;1037445;28;20463;-18
2023/02/18 01:09:26;;;;;;;6.93;4.05;;;;;;;;;;1037214;28;20029;-15
2023/02/18 01:09:56;;;;;;;13.02;6.20;;;;;;;;;;1037459;28;20055;-16
2023/02/18 01:10:27;;;;;;;14.35;6.50;;;;;;;;;;1037360;28;20030;-16
2023/02/18 01:10:58;;;;;;;10.93;5.32;;;;;;;;;;1037416;28;20030;-19
2023/02/18 01:11:28;;;;;;;15.98;5.40;;;;;;;;;;1037277;28;20076;-15
2023/02/18 01:11:58;;;;;;;8.07;5.28;;;;;;;;;;1037569;28;20485;-16
2023/02/18 01:12:29;;;;;;;8.00;4.40;;;;;;;;;;1037240;28;20026;-17
2023/02/18 01:13:00;;;;;;;11.27;6.00;;;;;;;;;;1037280;28;20022;-17
2023/02/18 01:13:31;;;;;;;15.95;7.45;;;;;;;;;;1036653;28;20026;-18
2023/02/18 01:14:01;;;;;;;10.95;5.43;;;;;;;;;;1036901;28;20064;-18
2023/02/18 01:14:32;;;;;;;8.95;4.88;;;;;;;;;;1037086;28;20184;-18
2023/02/18 01:15:03;;;;;;;13.98;6.13;;;;;;;;;;1036294;28;20049;-17
2023/02/18 01:15:34;;;;;;;15.90;5.75;;;;;;;;;;1037427;28;20032;-16
2023/02/18 01:16:05;;;;;;;13.98;6.80;;;;;;;;;;1037375;28;20504;-16
2023/02/18 01:16:35;;;;;;;17.48;7.28;;;;;;;;;;1037310;28;20044;-16
2023/02/18 01:17:05;;;;;;;17.75;6.95;;;;;;;;;;1036720;28;20022;-15
2023/02/18 01:17:36;;;;;;;20.42;7.88;;;;;;;;;;1035999;28;20121;-16
2023/02/18 01:18:07;;;;;;;12.60;6.25;;;;;;;;;;1036827;28;20026;-17
2023/02/18 01:18:38;;;;;;;14.60;7.60;;;;;;;;;;1036336;28;20473;-18
2023/02/18 01:19:08;;;;;;;15.52;7.00;;;;;;;;;;1037069;28;20017;-16
2023/02/18 01:19:39;;;;;;;15.13;5.75;;;;;;;;;;1037345;28;20508;-17
2023/02/18 01:20:10;;;;;;;18.88;7.45;;;;;;;;;;1035983;28;20474;-16
2023/02/18 01:20:42;;;;;;;15.15;6.88;;;;;;;;;;1036363;28;20045;-16
2023/02/18 01:21:12;;;;;;;10.63;6.70;;;;;;;;;;1037177;28;20026;-16
2023/02/18 01:21:43;;;;;;;16.25;7.63;;;;;;;;;;1037187;28;20162;-16
2023/02/18 01:22:13;;;;;;;14.23;7.60;;;;;;;;;;1037092;28;20036;-16
2023/02/18 01:22:44;;;;;;;15.15;8.05;;;;;;;;;;1037119;28;20029;-17
2023/02/18 01:23:15;;;;;;;19.75;8.52;;;;;;;;;;1037151;28;20031;-16
2023/02/18 01:23:45;;;;;;;17.08;5.63;;;;;;;;;;1036890;28;20022;-18
2023/02/18 01:24:16;;;;;;;16.58;7.07;;;;;;;;;;1036249;28;20367;-17
2023/02/18 01:24:46;;;;;;;15.68;7.50;;;;;;;;;;1037069;28;20067;-17
2023/02/18 01:25:17;;;;;;;20.77;7.93;;;;;;;;;;1037236;28;20053;-15
2023/02/18 01:25:48;;;;;;;20.52;6.00;;;;;;;;;;1037508;28;20164;-16
2023/02/18 01:26:18;;;;;;;14.35;7.60;;;;;;;;;;1037307;28;20025;-16
2023/02/18 01:26:49;;;;;;;19.80;8.15;;;;;;;;;;1037382;28;20456;-18
2023/02/18 01:27:19;;;;;;;13.35;7.32;;;;;;;;;;1037138;28;20022;-16
2023/02/18 01:27:49;;;;;;;19.17;7.55;;;;;;;;;;1037336;28;20479;-16
2023/02/18 01:28:24;;;;;;;12.43;7.40;;;;;;;;;;1037168;28;20701;-18
2023/02/18 01:28:54;;;;;;;15.15;8.88;;;;;;;;;;1036518;28;20030;-16
2023/02/18 01:29:24;;;;;;;14.48;6.60;;;;;;;;;;1035529;28;20394;-17
2023/02/18 01:29:55;;;;;;;23.45;9.30;;;;;;;;;;1036348;28;20030;-17
2023/02/18 01:30:25;;;;;;;16.30;9.10;;;;;;;;;;1035638;28;20018;-16
2023/02/18 01:30:56;;;;;;;18.05;9.43;;;;;;;;;;1037342;28;20026;-18
2023/02/18 01:31:26;;;;;;;17.23;8.70;;;;;;;;;;1037345;28;20030;-19
2023/02/18 01:31:57;;;;;;;14.57;7.55;;;;;;;;;;1037244;28;20076;-16
2023/02/18 01:32:27;;;;;;;11.18;7.63;;;;;;;;;;1037304;28;20029;-18
2023/02/18 01:32:58;;;;;;;10.73;5.55;;;;;;;;;;1036720;28;20029;-18
2023/02/18 01:33:29;;;;;;;21.13;7.97;;;;;;;;;;1036540;28;20366;-16
2023/02/18 01:34:00;;;;;;;24.80;7.82;;;;;;;;;;1032796;28;20057;-18
2023/02/18 01:34:31;;;;;;;16.88;6.55;;;;;;;;;;1032674;28;20113;-17
2023/02/18 01:35:02;;;;;;;15.73;7.63;;;;;;;;;;1033233;28;20029;-16
2023/02/18 01:35:33;;;;;;;22.83;8.10;;;;;;;;;;1032995;28;20025;-17
2023/02/18 01:36:04;;;;;;;28.75;10.77;;;;;;;;;;1037330;28;20505;-20
2023/02/18 01:36:34;;;;;;;17.98;8.35;;;;;;;;;;1037432;28;20018;-16
2023/02/18 01:37:05;;;;;;;13.43;7.10;;;;;;;;;;1036911;28;20499;-16
2023/02/18 01:37:35;;;;;;;21.23;8.43;;;;;;;;;;1037267;28;20535;-16
2023/02/18 01:38:06;;;;;;;15.63;7.50;;;;;;;;;;1037469;28;20032;-17
2023/02/18 01:38:37;;;;;;;14.18;7.85;;;;;;;;;;1037102;28;20123;-15
2023/02/18 01:39:07;;;;;;;11.95;6.85;;;;;;;;;;1037546;28;20052;-15
2023/02/18 01:39:38;;;;;;;15.40;8.02;;;;;;;;;;1037258;28;20057;-16
2023/02/18 01:40:10;;;;;;;17.25;9.13;;;;;;;;;;1036944;28;20113;-18
2023/02/18 01:40:46;;;;;;;15.18;7.85;;;;;;;;;;1036791;28;20362;-16
2023/02/18 01:41:16;;;;;;;17.10;7.10;;;;;;;;;;1036850;28;20030;-15
2023/02/18 01:41:47;;;;;;;18.27;8.55;;;;;;;;;;1037492;28;20385;-16
2023/02/18 01:42:19;;;;;;;11.57;7.65;;;;;;;;;;1037448;28;20426;-17
2023/02/18 01:42:49;;;;;;;14.55;7.60;;;;;;;;;;1037452;28;20025;-17
2023/02/18 01:43:20;;;;;;;19.08;7.38;;;;;;;;;;1035978;28;20044;-15
2023/02/18 01:44:09;;;;;;;16.67;7.35;;;;;;;;;;1036438;28;20121;-16
2023/02/18 01:44:39;;;;;;;13.20;7.40;;;;;;;;;;1035281;28;20026;-17
2023/02/18 01:45:29;;;;;;;21.83;9.25;;;;;;;;;;1038205;28;20030;-17
2023/02/18 01:45:59;;;;;;;15.40;6.00;;;;;;;;;;1038320;28;20022;-18
2023/02/18 01:46:30;;;;;;;21.30;6.82;;;;;;;;;;1036166;28;20025;-17
2023/02/18 01:47:01;;;;;;;11.20;7.00;;;;;;;;;;1038179;28;20021;-16
2023/02/18 01:47:31;;;;;;;14.07;8.02;;;;;;;;;;1035737;28;20030;-16
2023/02/18 01:48:10;;;;;;;15.25;7.22;;;;;;;;;;1035766;28;20028;-18
2023/02/18 01:48:43;;;;;;;18.20;8.40;;;;;;;;;;1035779;28;20056;-16
2023/02/18 01:49:16;;;;;;;21.98;9.77;;;;;;;;;;1037701;28;20026;-19
2023/02/18 01:49:49;;;;;;;16.40;7.85;;;;;;;;;;1037031;28;20029;-16
2023/02/18 01:50:19;;;;;;;12.02;7.10;;;;;;;;;;1036951;28;20473;-17
2023/02/18 01:50:52;;;;;;;15.07;8.07;;;;;;;;;;1036021;28;20236;-16
2023/02/18 01:51:24;;;;;;;14.80;8.25;;;;;;;;;;1034999;28;20125;-18
2023/02/18 01:51:57;;;;;;;18.65;8.10;;;;;;;;;;1034509;28;20026;-16
2023/02/18 01:52:31;;;;;;;16.02;7.45;;;;;;;;;;1031657;28;20413;-16
2023/02/18 01:53:02;;;;;;;18.40;8.43;;;;;;;;;;1029960;28;20513;-14
2023/02/18 01:53:37;;;;;;;11.55;6.47;;;;;;;;;;1028997;28;20049;-16
2023/02/18 01:54:25;;;;;;;17.13;7.70;;;;;;;;;;1027963;28;20077;-16
2023/02/18 01:54:56;;;;;;;13.18;7.53;;;;;;;;;;1034201;28;20080;-17
2023/02/18 01:55:27;;;;;;;24.15;9.40;;;;;;;;;;1035961;28;20503;-16
2023/02/18 01:55:59;;;;;;;22.80;10.82;;;;;;;;;;1035412;28;20477;-20
2023/02/18 01:56:35;;;;;;;21.98;9.52;;;;;;;;;;1035843;28;20029;-16
2023/02/18 01:57:11;;;;;;;15.57;6.80;;;;;;;;;;1038382;28;20026;-15
2023/02/18 01:57:42;;;;;;;25.15;8.02;;;;;;;;;;1030893;28;20080;-15
2023/02/18 01:58:13;;;;;;;18.17;10.38;;;;;;;;;;1033189;28;20463;-15
2023/02/18 01:58:43;;;;;;;29.30;9.40;;;;;;;;;;1035129;28;20073;-14
2023/02/18 01:59:37;;;;;;;19.13;10.32;;;;;;;;;;1035321;28;20026;-16
2023/02/18 02:00:13;;;;;;;16.27;7.85;;;;;;;;;;1037951;28;20021;-15
2023/02/18 02:00:43;;;;;;;20.83;8.57;;;;;;;;;;1036109;28;20037;-17
2023/02/18 02:01:14;;;;;;;15.23;7.03;;;;;;;;;;1036552;28;20033;-16
2023/02/18 02:01:45;;;;;;;19.58;9.18;;;;;;;;;;1038739;28;20017;-15
2023/02/18 02:02:20;;;;;;;18.95;8.73;;;;;;;;;;1038497;28;20430;-17
2023/02/18 02:02:51;;;;;;;14.23;8.13;;;;;;;;;;1036582;28;20041;-15
2023/02/18 02:03:21;;;;;;;14.27;8.02;;;;;;;;;;1036266;28;20033;-17
2023/02/18 02:03:52;;;;;;;13.90;7.15;;;;;;;;;;1032045;28;20029;-15
2023/02/18 02:04:23;;;;;;;19.42;7.70;;;;;;;;;;1032437;28;20454;-16
2023/02/18 02:04:53;;;;;;;15.80;8.18;;;;;;;;;;1032222;28;20033;-18
2023/02/18 02:05:24;;;;;;;15.80;7.95;;;;;;;;;;1031951;28;20081;-17
2023/02/18 02:05:54;;;;;;;12.05;7.40;;;;;;;;;;1036942;28;20021;-16
2023/02/18 02:06:25;;;;;;;15.27;6.30;;;;;;;;;;1035303;28;20704;-16
2023/02/18 02:06:55;;;;;;;13.52;5.60;;;;;;;;;;1037586;28;20029;-15
2023/02/18 02:07:27;;;;;;;14.57;7.28;;;;;;;;;;1033316;28;20033;-17
2023/02/18 02:07:58;;;;;;;17.95;6.95;;;;;;;;;;1032229;28;20025;-16
2023/02/18 02:08:29;;;;;;;11.27;7.80;;;;;;;;;;1031566;28;20050;-18
2023/02/18 02:09:02;;;;;;;18.02;8.10;;;;;;;;;;1030381;28;20033;-15
2023/02/18 02:09:33;;;;;;;18.95;7.80;;;;;;;;;;1031581;28;20022;-18
2023/02/18 02:10:04;;;;;;;18.45;10.50;;;;;;;;;;1032147;28;20055;-16
2023/02/18 02:10:54;;;;;;;19.88;8.43;;;;;;;;;;1033572;28;20204;-16
2023/02/18 02:11:33;;;;;;;17.98;7.35;;;;;;;;;;1038149;28;20029;-18
2023/02/18 02:12:23;;;;;;;14.05;6.45;;;;;;;;;;1039049;28;20132;-16
2023/02/18 02:13:11;;;;;;;22.52;8.57;;;;;;;;;;1036159;28;20022;-19
2023/02/18 02:13:44;;;;;;;17.90;8.00;;;;;;;;;;1037374;28;20053;-15
2023/02/18 02:14:17;;;;;;;17.45;8.65;;;;;;;;;;1036947;28;20018;-16
2023/02/18 02:15:06;;;;;;;16.40;7.68;;;;;;;;;;1036915;28;20028;-16
2023/02/18 02:15:41;;;;;;;12.77;8.75;;;;;;;;;;1039261;28;20064;-16
2023/02/18 02:16:28;;;;;;;13.35;6.78;;;;;;;;;;1035907;28;20032;-16
2023/02/18 02:17:04;;;;;;;13.98;5.78;;;;;;;;;;1036659;28;20025;-16
2023/02/18 02:17:50;;;;;;;12.82;7.63;;;;;;;;;;1035897;28;20037;-16
2023/02/18 02:18:20;;;;;;;9.90;5.93;;;;;;;;;;1036572;28;20108;-17
2023/02/18 02:19:01;;;;;;;17.25;8.18;;;;;;;;;;1032923;28;20030;-16
2023/02/18 02:19:49;;;;;;;16.08;8.20;;;;;;;;;;1032632;28;20037;-16
2023/02/18 02:20:58;;;;;;;11.80;5.82;;;;;;;;;;1034658;28;20025;-18
2023/02/18 02:21:29;;;;;;;10.55;5.15;;;;;;;;;;1021123;29;20357;-17
2023/02/18 02:22:17;;;;;;;16.58;5.68;;;;;;;;;;1021570;29;20483;-15
2023/02/18 02:23:00;;;;;;;12.02;7.18;;;;;;;;;;1023160;29;20030;-16
2023/02/18 02:23:40;;;;;;;10.27;4.63;;;;;;;;;;1022798;29;20023;-17
2023/02/18 02:24:23;;;;;;;10.75;6.00;;;;;;;;;;1021093;29;20031;-14
2023/02/18 02:24:57;;;;;;;16.70;6.60;;;;;;;;;;1022285;29;20424;-14
2023/02/18 02:25:46;;;;;;;22.05;8.57;;;;;;;;;;1019320;29;20038;-16
2023/02/18 02:26:32;;;;;;;13.75;5.78;;;;;;;;;;1019250;29;20023;-16
2023/02/18 02:27:05;;;;;;;15.63;6.32;;;;;;;;;;1017971;29;20408;-16
2023/02/18 02:27:54;;;;;;;12.25;7.47;;;;;;;;;;1035729;28;20033;-16
2023/02/18 02:28:40;;;;;;;12.90;6.60;;;;;;;;;;1036333;28;20176;-16
2023/02/18 02:29:20;;;;;;;16.73;7.93;;;;;;;;;;1031007;28;20015;-16
2023/02/18 02:30:09;;;;;;;17.20;7.40;;;;;;;;;;1028214;28;20109;-14
2023/02/18 02:30:59;;;;;;;19.73;8.43;;;;;;;;;;1030283;28;20128;-16
2023/02/18 02:32:02;;;;;;;19.38;9.30;;;;;;;;;;1037038;28;20022;-18
2023/02/18 02:32:45;;;;;;;20.17;8.60;;;;;;;;;;1021814;29;20026;-21
2023/02/18 02:33:28;;;;;;;16.52;6.80;;;;;;;;;;1019626;29;20418;-16
2023/02/18 02:34:05;;;;;;;14.77;7.63;;;;;;;;;;1031564;28;20425;-17
2023/02/18 02:34:50;;;;;;;19.52;8.45;;;;;;;;;;1036189;28;20029;-17
2023/02/18 02:35:21;;;;;;;17.92;9.50;;;;;;;;;;1038131;28;20018;-18
2023/02/18 02:36:17;;;;;;;16.95;8.95;;;;;;;;;;1039115;28;20614;-18
2023/02/18 02:36:56;;;;;;;18.42;8.48;;;;;;;;;;1022903;28;20126;-16
2023/02/18 02:37:35;;;;;;;16.35;9.20;;;;;;;;;;1024014;28;20031;-18
2023/02/18 02:38:06;;;;;;;;;;;;;;;;;;1031476;28;20565;-16
2023/02/18 02:38:48;;;;;;;12.73;6.72;;;;;;;;;;1027888;28;19921;-20
2023/02/18 02:39:45;;;;;;;15.50;10.07;;;;;;;;;;1030658;28;20026;-16
2023/02/18 02:40:27;;;;;;;16.08;8.10;;;;;;;;;;1029771;28;20109;-18
2023/02/18 02:40:58;;;;;;;18.08;8.98;;;;;;;;;;1036502;28;20504;-18
2023/02/18 02:41:32;;;;;;;23.15;10.32;;;;;;;;;;1035774;28;20030;-16
2023/02/18 02:42:05;;;;;;;17.73;9.55;;;;;;;;;;1037309;28;20469;-17
2023/02/18 02:42:54;;;;;;;25.52;11.45;;;;;;;;;;1038574;28;20498;-14
2023/02/18 02:43:37;;;;;;;16.13;8.35;;;;;;;;;;1037084;28;20666;-15
2023/02/18 02:44:08;;;;;;;13.95;7.28;;;;;;;;;;1031177;28;20022;-15
2023/02/18 02:44:59;;;;;;;12.18;6.20;;;;;;;;;;1032906;28;20116;-18
2023/02/18 02:45:42;;;;;;;13.70;6.80;;;;;;;;;;1031451;28;20029;-14
2023/02/18 02:46:18;;;;;;;18.58;8.02;;;;;;;;;;1036080;28;20032;-16
2023/02/18 02:46:54;;;;;;;14.60;7.78;;;;;;;;;;1037650;28;20029;-16
2023/02/18 02:47:36;;;;;;;14.48;7.43;;;;;;;;;;1034350;28;20080;-15
2023/02/18 02:48:26;;;;;;;14.68;6.78;;;;;;;;;;1029042;28;20034;-18
2023/02/18 02:48:59;;;;;;;10.35;6.50;;;;;;;;;;1029462;28;20378;-16
2023/02/18 02:49:38;;;;;;;12.43;7.72;;;;;;;;;;1034273;28;20033;-15
2023/02/18 02:50:13;;;;;;;12.00;7.18;;;;;;;;;;1033603;28;20104;-17
2023/02/18 02:50:52;;;;;;;23.35;9.88;;;;;;;;;;1031208;28;20582;-17
2023/02/18 02:51:28;;;;;;;13.93;7.20;;;;;;;;;;1032423;28;20485;-16
2023/02/18 02:51:59;;;;;;;20.05;7.65;;;;;;;;;;1032923;28;20105;-16
2023/02/18 02:52:33;;;;;;;19.58;9.35;;;;;;;;;;1032691;28;20037;-15
2023/02/18 02:53:06;;;;;;;12.60;7.25;;;;;;;;;;1028795;28;20030;-16
2023/02/18 02:53:40;;;;;;;14.23;7.65;;;;;;;;;;1029407;28;20026;-18
2023/02/18 02:54:15;;;;;;;18.63;9.82;;;;;;;;;;1027583;28;20025;-17
2023/02/18 02:54:46;;;;;;;26.35;9.57;;;;;;;;;;1030488;28;20478;-15
2023/02/18 02:55:19;;;;;;;15.05;6.75;;;;;;;;;;1032398;28;20117;-18
2023/02/18 02:55:49;;;;;;;15.30;9.63;;;;;;;;;;1030135;28;20031;-15
2023/02/18 02:56:21;;;;;;;17.70;10.25;;;;;;;;;;1033126;28;20024;-15
2023/02/18 02:57:07;;;;;;;18.55;8.52;;;;;;;;;;1031147;28;20057;-16
2023/02/18 02:57:51;;;;;;;19.65;10.27;;;;;;;;;;1035489;28;20104;-16
2023/02/18 02:58:22;;;;;;;36.08;8.50;;;;;;;;;;1032483;28;20014;-15
2023/02/18 02:58:59;;;;;;;17.85;10.00;;;;;;;;;;1032731;28;20033;-16
2023/02/18 02:59:29;;;;;;;23.95;10.77;;;;;;;;;;1032912;28;20033;-17
2023/02/18 03:00:03;;;;;;;26.67;11.35;;;;;;;;;;1029768;28;20018;-17
2023/02/18 03:00:52;;;;;;;22.92;9.80;;;;;;;;;;1030814;28;20034;-16
2023/02/18 03:01:55;;;;;;;25.63;11.35;;;;;;;;;;1029837;28;20014;-19
2023/02/18 03:02:29;;;;;;;10.52;7.30;;;;;;;;;;1022891;28;20499;-19
2023/02/18 03:03:18;;;;;;;17.67;9.10;;;;;;;;;;1025131;28;20070;-17
2023/02/18 03:04:10;;;;;;;21.55;8.82;;;;;;;;;;1037797;28;20469;-17
2023/02/18 03:04:58;;;;;;;28.88;11.85;;;;;;;;;;1032013;28;20769;-18
2023/02/18 03:05:29;;;;;;;18.73;9.43;;;;;;;;;;1033109;28;21518;-15
2023/02/18 03:06:26;;;;;;;25.15;9.75;;;;;;;;;;1033417;28;20024;-17
2023/02/18 03:07:05;;;;;;;16.08;9.07;;;;;;;;;;1037920;28;20017;-16
2023/02/18 03:07:36;;;;;;;;;;;;;;;;;;1033282;28;20371;-18
2023/02/18 03:08:06;;;;;;;19.92;10.50;;;;;;;;;;1033060;28;19920;-16
2023/02/18 03:08:40;;;;;;;13.38;7.55;;;;;;;;;;1033044;28;20025;-19
2023/02/18 03:09:36;;;;;;;22.13;9.35;;;;;;;;;;1032409;28;20021;-16
2023/02/18 03:10:13;;;;;;;25.42;9.57;;;;;;;;;;1032722;28;20401;-16
2023/02/18 03:10:58;;;;;;;18.30;8.85;;;;;;;;;;1037465;28;20025;-16
2023/02/18 03:11:32;;;;;;;22.88;7.93;;;;;;;;;;1032433;28;20042;-18
2023/02/18 03:12:15;;;;;;;20.42;9.70;;;;;;;;;;1032589;28;20111;-16
2023/02/18 03:12:58;;;;;;;14.10;7.93;;;;;;;;;;1033747;28;20069;-16
2023/02/18 03:13:47;;;;;;;11.77;6.82;;;;;;;;;;1036036;28;20021;-17
2023/02/18 03:14:25;;;;;;;14.48;5.85;;;;;;;;;;1037882;28;20522;-16
2023/02/18 03:15:04;;;;;;;13.10;7.68;;;;;;;;;;1035600;28;20026;-15
2023/02/18 03:15:49;;;;;;;20.17;7.43;;;;;;;;;;1036482;28;20370;-16
2023/02/18 03:16:26;;;;;;;16.23;6.85;;;;;;;;;;1037034;28;20043;-17
2023/02/18 03:17:09;;;;;;;17.20;7.65;;;;;;;;;;1034537;28;20113;-18
2023/02/18 03:17:43;;;;;;;22.15;8.63;;;;;;;;;;1034673;28;20040;-15
2023/02/18 03:18:20;;;;;;;24.70;7.95;;;;;;;;;;1033012;28;20026;-16
2023/02/18 03:18:56;;;;;;;20.48;7.30;;;;;;;;;;1033242;28;20029;-16
2023/02/18 03:19:42;;;;;;;14.70;8.90;;;;;;;;;;1031620;28;20537;-15
2023/02/18 03:20:19;;;;;;;16.77;8.27;;;;;;;;;;1036843;28;20335;-16
2023/02/18 03:20:55;;;;;;;9.35;5.60;;;;;;;;;;1036060;28;20089;-15
2023/02/18 03:21:30;;;;;;;16.30;6.85;;;;;;;;;;1037028;28;20029;-17
2023/02/18 03:22:05;;;;;;;16.80;7.88;;;;;;;;;;1036255;28;20469;-18
2023/02/18 03:22:42;;;;;;;9.27;6.43;;;;;;;;;;1032941;28;20026;-18